Time;durP1;ratioP1;P1;durP2;ratioP2;P2;SDS_P1;SDS_P2;PMS_P1;PMS_P2;Temp;Humidity;BMP_temperature;BMP_pressure;BME280_temperature;BME280_humidity;BME280_pressure;Samples;Min_cycle;Max_cycle;Signal;HPM_P1;HPM_P2
2023/04/21 00:01:00;;;;;;;28.75;18.38;;;9.40;99.90;;;;;;5043432;28;20052;-61
2023/04/21 00:03:27;;;;;;;27.75;16.95;;;9.40;99.90;;;;;;5036662;28;20426;-60
2023/04/21 00:05:57;;;;;;;26.73;17.20;;;9.40;99.90;;;;;;5039486;28;20041;-61
2023/04/21 00:08:23;;;;;;;27.33;17.23;;;9.30;99.90;;;;;;5029704;28;20037;-60
2023/04/21 00:10:49;;;;;;;22.35;15.75;;;9.40;99.90;;;;;;5041256;28;20033;-61
2023/04/21 00:13:15;;;;;;;27.45;17.40;;;9.30;99.90;;;;;;5034610;28;20033;-61
2023/04/21 00:15:41;;;;;;;24.85;17.83;;;9.30;99.90;;;;;;5041891;28;20370;-61
2023/04/21 00:18:06;;;;;;;28.42;17.98;;;9.30;99.90;;;;;;5042080;28;20496;-61
2023/04/21 00:20:32;;;;;;;24.25;16.33;;;9.30;99.90;;;;;;5047638;28;20120;-60
2023/04/21 00:22:59;;;;;;;23.77;17.60;;;9.30;99.90;;;;;;5012393;28;20383;-61
2023/04/21 00:25:25;;;;;;;25.85;16.27;;;9.30;99.90;;;;;;5046921;28;20082;-61
2023/04/21 00:27:51;;;;;;;22.33;16.80;;;9.20;99.90;;;;;;5044926;28;20165;-61
2023/04/21 00:30:17;;;;;;;25.23;15.98;;;9.20;99.90;;;;;;5045189;28;20119;-62
2023/04/21 00:32:43;;;;;;;19.25;14.90;;;9.20;99.90;;;;;;5045210;28;20064;-61
2023/04/21 00:35:09;;;;;;;20.48;14.50;;;9.20;99.90;;;;;;5045326;28;20068;-60
2023/04/21 00:37:35;;;;;;;23.15;14.70;;;9.20;99.90;;;;;;5036304;28;20047;-61
2023/04/21 00:40:02;;;;;;;20.75;15.60;;;9.20;99.90;;;;;;5040524;28;20888;-60
2023/04/21 00:42:28;;;;;;;25.60;15.88;;;9.20;99.90;;;;;;5047230;28;20536;-60
2023/04/21 00:44:54;;;;;;;20.40;14.48;;;9.20;99.90;;;;;;5046266;28;20094;-60
2023/04/21 00:47:20;;;;;;;23.70;14.30;;;9.20;99.90;;;;;;5047433;28;20099;-60
2023/04/21 00:49:46;;;;;;;19.95;14.57;;;9.20;99.90;;;;;;5044657;28;20060;-60
2023/04/21 00:52:15;;;;;;;20.27;13.38;;;9.10;99.90;;;;;;5042322;28;20034;-60
2023/04/21 00:54:41;;;;;;;18.92;13.90;;;9.10;99.90;;;;;;5039634;28;20033;-60
2023/04/21 00:57:08;;;;;;;21.50;14.75;;;9.10;99.90;;;;;;5046636;28;20063;-60
2023/04/21 00:59:35;;;;;;;19.55;12.95;;;9.10;99.90;;;;;;5044079;28;20049;-60
2023/04/21 01:02:00;;;;;;;21.70;13.80;;;9.10;99.90;;;;;;5047193;28;20091;-62
2023/04/21 01:04:27;;;;;;;24.50;15.15;;;9.10;99.90;;;;;;5027829;28;20537;-60
2023/04/21 01:06:53;;;;;;;21.35;13.57;;;9.10;99.90;;;;;;5047022;28;20076;-60
2023/04/21 01:09:20;;;;;;;20.60;14.85;;;9.10;99.90;;;;;;5023468;28;20072;-60
2023/04/21 01:12:06;;;;;;;18.25;14.40;;;9.10;99.90;;;;;;5029450;28;20080;-61
2023/04/21 01:14:33;;;;;;;28.45;15.77;;;9.00;99.90;;;;;;5043610;28;20132;-61
2023/04/21 01:16:59;;;;;;;20.33;14.57;;;9.00;99.90;;;;;;5039996;28;20051;-61
2023/04/21 01:19:29;;;;;;;21.27;13.90;;;9.00;99.90;;;;;;5043445;28;20505;-61
2023/04/21 01:21:59;;;;;;;18.08;12.95;;;8.90;99.90;;;;;;5044232;28;20329;-61
2023/04/21 01:24:46;;;;;;;23.20;16.35;;;8.90;99.90;;;;;;5022559;28;20037;-61
2023/04/21 01:27:15;;;;;;;23.05;15.32;;;8.90;99.90;;;;;;5041152;28;20503;-61
2023/04/21 01:29:42;;;;;;;19.63;13.70;;;8.90;99.90;;;;;;5028583;28;20106;-61
2023/04/21 01:32:12;;;;;;;22.40;15.02;;;8.90;99.90;;;;;;5048380;28;20100;-61
2023/04/21 01:34:39;;;;;;;19.30;14.20;;;;;;;;;;5026468;28;20056;-61
2023/04/21 01:37:12;;;;;;;21.23;14.52;;;;;;;;;;5045172;28;20038;-61
2023/04/21 01:39:38;;;;;;;;;;;;;;;;;;5041058;28;20045;-61
2023/04/21 01:42:05;;;;;;;26.40;14.73;;;;;;;;;;5050806;28;19929;-61
2023/04/21 01:44:31;;;;;;;23.67;15.43;;;8.90;99.90;;;;;;5042542;28;20124;-61
2023/04/21 01:46:57;;;;;;;18.88;14.43;;;;;;;;;;5051124;28;20112;-61
2023/04/21 01:49:23;;;;;;;22.48;15.05;;;;;;;;;;5043229;28;20042;-62
2023/04/21 01:51:49;;;;;;;26.30;16.25;;;;;;;;;;5048029;28;20375;-62
2023/04/21 01:54:15;;;;;;;23.40;16.23;;;;;;;;;;5027071;28;20044;-61
2023/04/21 01:56:42;;;;;;;24.40;14.85;;;;;;;;;;5045573;28;20061;-61
2023/04/21 01:59:08;;;;;;;22.20;14.00;;;;;;;;;;5023563;28;20056;-61
2023/04/21 02:01:35;;;;;;;20.65;14.80;;;;;;;;;;5048707;28;20118;-61
2023/04/21 02:04:01;;;;;;;22.92;15.25;;;;;;;;;;5048172;28;20044;-61
2023/04/21 02:06:28;;;;;;;20.35;14.88;;;;;;;;;;5046833;28;20451;-61
2023/04/21 02:08:54;;;;;;;26.58;16.38;;;;;;;;;;5030296;28;20033;-61
2023/04/21 02:11:21;;;;;;;27.08;14.98;;;;;;;;;;5048068;28;20052;-61
2023/04/21 02:13:47;;;;;;;22.10;15.60;;;;;;;;;;5047082;28;20041;-62
2023/04/21 02:16:13;;;;;;;21.25;14.63;;;;;;;;;;5048694;28;20049;-61
2023/04/21 02:18:40;;;;;;;20.35;14.43;;;;;;;;;;5043366;28;20032;-62
2023/04/21 02:21:06;;;;;;;23.58;16.95;;;;;;;;;;5045972;28;20045;-61
2023/04/21 02:23:32;;;;;;;23.52;15.73;;;;;;;;;;5041208;28;20427;-62
2023/04/21 02:25:58;;;;;;;22.73;15.30;;;;;;;;;;5041385;28;20059;-61
2023/04/21 02:28:25;;;;;;;25.52;15.27;;;;;;;;;;5038344;28;20431;-61
2023/04/21 02:30:52;;;;;;;20.58;13.80;;;;;;;;;;5048207;28;20489;-61
2023/04/21 02:33:18;;;;;;;22.73;15.43;;;;;;;;;;5047949;28;20037;-61
2023/04/21 02:35:44;;;;;;;21.25;15.07;;;;;;;;;;5046745;28;20399;-61
2023/04/21 02:38:10;;;;;;;22.83;16.17;;;;;;;;;;5046199;28;20044;-61
2023/04/21 02:40:37;;;;;;;21.33;14.25;;;;;;;;;;5046987;28;20037;-61
2023/04/21 02:43:03;;;;;;;19.55;13.05;;;;;;;;;;5031443;28;20044;-62
2023/04/21 02:45:29;;;;;;;24.02;14.75;;;;;;;;;;5045691;28;20135;-61
2023/04/21 02:47:55;;;;;;;21.90;15.05;;;;;;;;;;5048789;28;20040;-61
2023/04/21 02:50:21;;;;;;;24.45;13.60;;;;;;;;;;5050057;28;20041;-61
2023/04/21 02:52:47;;;;;;;18.65;14.55;;;;;;;;;;5048273;28;20033;-61
2023/04/21 02:55:13;;;;;;;18.10;13.93;;;;;;;;;;5048730;28;20043;-61
2023/04/21 02:57:39;;;;;;;19.67;14.43;;;;;;;;;;5047837;28;20037;-61
2023/04/21 03:00:06;;;;;;;20.98;14.95;;;;;;;;;;5047328;28;20052;-61
2023/04/21 03:02:32;;;;;;;22.90;15.55;;;;;;;;;;5031399;28;20546;-61
2023/04/21 03:04:58;;;;;;;23.63;15.05;;;;;;;;;;5025766;28;20037;-61
2023/04/21 03:07:25;;;;;;;23.23;15.35;;;;;;;;;;5027142;28;20088;-60
2023/04/21 03:09:51;;;;;;;24.73;16.15;;;;;;;;;;5047363;28;20076;-61
2023/04/21 03:12:17;;;;;;;20.77;15.15;;;;;;;;;;5030472;28;20068;-61
2023/04/21 03:14:43;;;;;;;22.00;15.95;;;;;;;;;;5045751;28;20461;-61
2023/04/21 03:17:09;;;;;;;25.13;15.40;;;;;;;;;;5047018;28;20041;-61
2023/04/21 03:19:35;;;;;;;24.45;16.15;;;;;;;;;;5043355;28;20047;-61
2023/04/21 03:22:01;;;;;;;19.30;15.73;;;;;;;;;;5048981;28;20041;-60
2023/04/21 03:24:28;;;;;;;29.85;15.55;;;;;;;;;;5014547;28;20076;-60
2023/04/21 03:26:55;;;;;;;22.02;15.75;;;;;;;;;;5030782;28;20043;-61
2023/04/21 03:29:22;;;;;;;22.80;16.23;;;;;;;;;;5048798;28;20037;-62
2023/04/21 03:31:48;;;;;;;22.48;16.88;;;;;;;;;;5050546;28;20049;-60
2023/04/21 03:34:14;;;;;;;25.10;14.88;;;;;;;;;;5049248;28;20037;-61
2023/04/21 03:36:40;;;;;;;26.95;17.42;;;;;;;;;;5049626;28;20041;-60
2023/04/21 03:39:07;;;;;;;22.73;16.52;;;;;;;;;;5047840;28;20166;-61
2023/04/21 03:41:33;;;;;;;34.38;17.02;;;;;;;;;;5048503;28;20052;-60
2023/04/21 03:43:59;;;;;;;25.27;17.52;;;;;;;;;;5047627;28;20128;-61
2023/04/21 03:46:25;;;;;;;22.58;16.02;;;;;;;;;;5028783;28;20077;-61
2023/04/21 03:48:52;;;;;;;23.02;16.10;;;;;;;;;;5036481;28;20032;-61
2023/04/21 03:51:18;;;;;;;22.30;15.10;;;;;;;;;;5047872;28;20040;-61
2023/04/21 03:53:44;;;;;;;20.35;15.32;;;;;;;;;;5046110;28;20175;-61
2023/04/21 03:56:10;;;;;;;21.35;16.27;;;;;;;;;;5047626;28;20041;-61
2023/04/21 03:58:36;;;;;;;24.23;16.17;;;;;;;;;;5046937;28;20041;-61
2023/04/21 04:01:06;;;;;;;24.95;16.63;;;;;;;;;;5046779;28;20045;-61
2023/04/21 04:03:32;;;;;;;23.70;16.95;;;;;;;;;;5047422;28;20047;-61
2023/04/21 04:05:58;;;;;;;24.67;17.08;;;;;;;;;;5046220;28;20041;-61
2023/04/21 04:08:25;;;;;;;26.00;16.92;;;;;;;;;;5036026;28;20614;-61
2023/04/21 04:10:51;;;;;;;27.67;17.13;;;;;;;;;;5041950;28;20040;-60
2023/04/21 04:13:17;;;;;;;21.52;15.02;;;;;;;;;;5040299;28;20071;-60
2023/04/21 04:15:43;;;;;;;20.02;15.23;;;;;;;;;;5041836;28;20065;-61
2023/04/21 04:18:09;;;;;;;24.13;15.52;;;;;;;;;;5034712;28;20096;-61
2023/04/21 04:20:35;;;;;;;22.30;14.75;;;;;;;;;;5041331;28;20137;-61
2023/04/21 04:23:02;;;;;;;19.63;14.20;;;;;;;;;;5022003;28;20452;-61
2023/04/21 04:25:28;;;;;;;23.42;13.90;;;;;;;;;;5044247;28;20182;-61
2023/04/21 04:27:54;;;;;;;18.75;14.93;;;;;;;;;;5042434;28;20123;-60
2023/04/21 04:30:22;;;;;;;19.70;14.25;;;;;;;;;;5045640;28;20487;-61
2023/04/21 04:32:48;;;;;;;19.83;15.40;;;;;;;;;;5026670;28;20071;-60
2023/04/21 04:35:15;;;;;;;23.85;15.93;;;;;;;;;;5047474;28;20568;-61
2023/04/21 04:37:41;;;;;;;19.42;13.30;;;;;;;;;;5044725;28;20044;-61
2023/04/21 04:40:14;;;;;;;21.95;13.77;;;;;;;;;;5027499;28;20043;-60
2023/04/21 04:42:41;;;;;;;17.70;13.40;;;;;;;;;;5039363;28;20071;-61
2023/04/21 04:45:08;;;;;;;22.02;13.77;;;;;;;;;;5035724;28;20079;-60
2023/04/21 04:47:34;;;;;;;20.80;14.15;;;;;;;;;;5041291;28;20052;-60
2023/04/21 04:50:02;;;;;;;24.23;14.18;;;;;;;;;;5002845;28;20079;-61
2023/04/21 04:52:28;;;;;;;18.65;12.82;;;;;;;;;;5042016;28;20087;-60
2023/04/21 04:54:54;;;;;;;18.58;13.02;;;;;;;;;;5043042;28;20114;-61
2023/04/21 04:57:21;;;;;;;17.85;11.43;;;;;;;;;;5042624;28;20086;-61
2023/04/21 04:59:47;;;;;;;18.83;13.35;;;;;;;;;;5023347;28;20063;-61
2023/04/21 05:02:13;;;;;;;24.55;13.02;;;;;;;;;;5023285;28;20048;-60
2023/04/21 05:04:40;;;;;;;15.52;11.60;;;;;;;;;;5005089;28;20106;-60
2023/04/21 05:07:06;;;;;;;19.63;12.98;;;;;;;;;;5040673;28;20056;-61
2023/04/21 05:09:33;;;;;;;19.95;12.82;;;;;;;;;;5043284;28;20049;-61
2023/04/21 05:12:00;;;;;;;21.00;13.50;;;;;;;;;;5043460;28;20044;-61
2023/04/21 05:14:26;;;;;;;13.98;12.05;;;;;;;;;;5034945;28;20271;-61
2023/04/21 05:16:53;;;;;;;20.55;13.85;;;;;;;;;;5044347;28;20500;-62
2023/04/21 05:19:19;;;;;;;20.13;12.57;;;;;;;;;;5036902;28;20051;-60
2023/04/21 05:21:45;;;;;;;16.05;11.95;;;;;;;;;;5038012;28;20837;-61
2023/04/21 05:24:11;;;;;;;18.13;12.43;;;;;;;;;;5035043;28;20570;-61
2023/04/21 05:26:37;;;;;;;18.08;12.07;;;;;;;;;;5039742;28;20048;-61
2023/04/21 05:29:03;;;;;;;18.38;13.57;;;;;;;;;;5051956;28;20044;-61
2023/04/21 05:31:29;;;;;;;19.17;11.45;;;;;;;;;;5044138;28;20685;-61
2023/04/21 05:33:55;;;;;;;17.05;12.10;;;;;;;;;;5040660;28;20044;-61
2023/04/21 05:36:23;;;;;;;19.92;12.07;;;;;;;;;;5040062;28;20057;-62
2023/04/21 05:38:49;;;;;;;17.27;10.95;;;;;;;;;;5034872;28;20434;-61
2023/04/21 05:41:16;;;;;;;22.08;12.25;;;;;;;;;;5039299;28;20050;-61
2023/04/21 05:43:42;;;;;;;15.43;10.73;;;;;;;;;;5039315;28;20140;-61
2023/04/21 05:46:09;;;;;;;17.00;11.43;;;;;;;;;;5032879;28;20052;-62
2023/04/21 05:48:36;;;;;;;19.88;12.10;;;;;;;;;;5040129;28;20033;-62
2023/04/21 05:51:14;;;;;;;19.02;11.52;;;;;;;;;;5020303;28;20039;-61
2023/04/21 05:53:41;;;;;;;16.88;10.98;;;;;;;;;;5036297;28;20151;-61
2023/04/21 05:56:11;;;;;;;18.08;11.43;;;;;;;;;;5035137;28;20052;-61
2023/04/21 05:58:37;;;;;;;18.02;11.57;;;;;;;;;;5042646;28;20533;-61
2023/04/21 06:01:05;;;;;;;18.42;12.27;;;;;;;;;;5039042;28;20134;-61
2023/04/21 06:03:31;;;;;;;18.35;11.38;;;;;;;;;;5036430;28;20045;-61
2023/04/21 06:05:59;;;;;;;18.15;11.20;;;;;;;;;;5024284;28;20060;-61
2023/04/21 06:08:25;;;;;;;17.23;11.25;;;;;;;;;;5036578;28;20422;-61
2023/04/21 06:10:51;;;;;;;17.60;10.32;;;;;;;;;;5040349;28;20176;-60
2023/04/21 06:13:17;;;;;;;14.73;9.88;;;;;;;;;;5022590;28;20052;-60
2023/04/21 06:15:43;;;;;;;22.52;11.63;;;;;;;;;;5043996;28;20107;-60
2023/04/21 06:18:10;;;;;;;17.20;10.75;;;;;;;;;;5044781;28;20163;-60
2023/04/21 06:20:36;;;;;;;17.35;11.25;;;;;;;;;;5021958;28;20060;-60
2023/04/21 06:23:02;;;;;;;14.43;9.98;;;;;;;;;;5045734;28;20501;-61
2023/04/21 06:25:29;;;;;;;22.27;11.68;;;;;;;;;;5041373;28;20491;-60
2023/04/21 06:27:55;;;;;;;18.80;11.43;;;;;;;;;;5042989;28;20059;-60
2023/04/21 06:30:21;;;;;;;17.98;10.40;;;;;;;;;;5029481;28;20041;-60
2023/04/21 06:32:47;;;;;;;18.63;12.55;;;;;;;;;;5040717;28;20041;-60
2023/04/21 06:35:14;;;;;;;20.00;10.32;;;;;;;;;;5020120;28;20037;-60
2023/04/21 06:37:43;;;;;;;22.33;12.65;;;;;;;;;;5048014;28;20041;-60
2023/04/21 06:40:11;;;;;;;13.90;10.07;;;;;;;;;;5042658;28;20041;-60
2023/04/21 06:42:37;;;;;;;17.77;11.80;;;;;;;;;;5050114;28;20103;-60
2023/04/21 06:45:03;;;;;;;14.98;10.48;;;;;;;;;;5048460;28;20033;-60
2023/04/21 06:47:29;;;;;;;16.83;12.23;;;;;;;;;;5029999;28;20119;-60
2023/04/21 06:49:56;;;;;;;14.07;11.32;;;;;;;;;;5031539;28;20037;-60
2023/04/21 06:52:23;;;;;;;17.02;10.60;;;;;;;;;;5021191;28;20163;-60
2023/04/21 06:54:49;;;;;;;18.25;10.70;;;;;;;;;;5044908;28;20467;-61
2023/04/21 06:57:16;;;;;;;18.63;9.68;;;;;;;;;;5042449;28;20433;-61
2023/04/21 06:59:42;;;;;;;17.55;10.50;;;;;;;;;;5046548;28;20507;-61
2023/04/21 07:02:09;;;;;;;22.33;11.07;;;;;;;;;;5037872;28;20065;-61
2023/04/21 07:04:35;;;;;;;17.30;10.40;;;;;;;;;;5043749;28;20119;-61
2023/04/21 07:07:01;;;;;;;14.38;11.23;;;;;;;;;;5039953;28;20042;-60
2023/04/21 07:09:27;;;;;;;20.40;11.70;;;;;;;;;;5042852;28;20509;-60
2023/04/21 07:11:54;;;;;;;17.27;10.55;;;;;;;;;;5039990;28;20074;-60
2023/04/21 07:14:21;;;;;;;15.98;9.75;;;;;;;;;;5041676;28;20535;-61
2023/04/21 07:16:47;;;;;;;19.80;11.15;;;;;;;;;;5045440;28;21087;-61
2023/04/21 07:19:13;;;;;;;18.83;11.52;;;;;;;;;;5027947;28;20128;-61
2023/04/21 07:21:39;;;;;;;16.13;11.13;;;;;;;;;;5043343;28;20218;-61
2023/04/21 07:24:06;;;;;;;13.95;9.32;;;;;;;;;;5042426;28;20033;-61
2023/04/21 07:26:33;;;;;;;18.52;11.65;;;;;;;;;;5045773;28;20045;-60
2023/04/21 07:28:59;;;;;;;17.10;10.95;;;;;;;;;;5011208;28;20030;-61
2023/04/21 07:31:25;;;;;;;16.70;10.05;;;;;;;;;;5024297;28;20502;-61
2023/04/21 07:33:51;;;;;;;16.90;10.07;;;;;;;;;;5038053;28;20069;-61
2023/04/21 07:36:17;;;;;;;20.58;11.32;;;;;;;;;;5039652;28;20048;-61
2023/04/21 07:38:44;;;;;;;16.27;10.85;;;;;;;;;;5038889;28;20041;-61
2023/04/21 07:41:10;;;;;;;15.80;11.90;;;;;;;;;;5044048;28;20048;-61
2023/04/21 07:43:37;;;;;;;17.98;10.63;;;;;;;;;;5028390;28;20049;-60
2023/04/21 07:46:03;;;;;;;16.30;10.73;;;;;;;;;;5045275;28;20410;-61
2023/04/21 07:48:29;;;;;;;19.95;11.15;;;;;;;;;;5039198;28;20041;-61
2023/04/21 07:50:57;;;;;;;15.90;10.90;;;;;;;;;;5036040;28;20107;-61
2023/04/21 07:53:23;;;;;;;15.38;10.13;;;;;;;;;;5045201;28;20036;-61
2023/04/21 07:55:49;;;;;;;17.02;10.57;;;;;;;;;;5039404;28;20037;-61
2023/04/21 07:58:16;;;;;;;15.15;10.18;;;;;;;;;;5035229;28;20416;-61
2023/04/21 08:00:42;;;;;;;15.18;11.23;;;;;;;;;;5043234;28;20045;-61
2023/04/21 08:03:08;;;;;;;19.33;10.27;;;;;;;;;;5024065;28;20048;-61
2023/04/21 08:05:34;;;;;;;15.48;10.45;;;;;;;;;;5034938;28;20112;-61
2023/04/21 08:08:01;;;;;;;14.35;11.43;;;;;;;;;;5036222;28;20051;-61
2023/04/21 08:10:27;;;;;;;17.60;10.95;;;;;;;;;;5044903;28;20033;-61
2023/04/21 08:12:53;;;;;;;16.40;11.25;;;;;;;;;;5039843;28;20032;-62
2023/04/21 08:15:19;;;;;;;19.95;11.43;;;;;;;;;;5037735;28;20048;-61
2023/04/21 08:17:46;;;;;;;18.55;11.20;;;;;;;;;;5036825;28;20414;-61
2023/04/21 08:20:12;;;;;;;16.90;11.68;;;;;;;;;;5037081;28;20147;-61
2023/04/21 08:22:38;;;;;;;16.65;10.45;;;;;;;;;;5041698;28;20036;-61
2023/04/21 08:25:05;;;;;;;16.08;10.73;;;8.80;99.90;;;;;;5035711;28;20037;-61
2023/04/21 08:27:30;;;;;;;15.35;10.68;;;12.30;99.90;;;;;;5043476;28;20037;-61
2023/04/21 08:29:56;;;;;;;21.33;11.60;;;12.30;99.90;;;;;;5039351;28;20036;-61
2023/04/21 08:32:23;;;;;;;18.08;10.70;;;;;;;;;;5040497;28;20151;-61
2023/04/21 08:34:53;;;;;;;14.55;9.98;;;12.40;99.90;;;;;;5039025;28;20036;-61
2023/04/21 08:37:20;;;;;;;14.40;10.80;;;12.60;99.90;;;;;;5046820;28;20034;-62
2023/04/21 08:39:46;;;;;;;14.93;9.90;;;12.60;99.90;;;;;;5039206;28;20457;-61
2023/04/21 08:42:19;;;;;;;11.68;9.43;;;12.70;99.90;;;;;;5045573;28;20048;-61
2023/04/21 08:44:45;;;;;;;16.80;10.95;;;12.70;99.90;;;;;;5036827;28;20396;-61
2023/04/21 08:47:12;;;;;;;20.88;10.52;;;;;;;;;;5046679;28;20049;-62
2023/04/21 08:49:39;;;;;;;14.55;10.90;;;;;;;;;;5045245;28;20152;-61
2023/04/21 08:52:06;;;;;;;12.77;10.10;;;12.80;99.90;;;;;;5046802;28;20047;-62
2023/04/21 08:54:32;;;;;;;21.27;11.95;;;12.90;99.90;;;;;;5041453;28;20159;-61
2023/04/21 08:56:59;;;;;;;16.83;10.77;;;;;;;;;;5045546;28;20159;-61
2023/04/21 08:59:25;;;;;;;15.07;10.07;;;;;;;;;;5043299;28;20495;-61
2023/04/21 09:02:05;;;;;;;16.05;10.60;;;;;;;;;;5037354;28;20127;-62
2023/04/21 09:04:32;;;;;;;20.80;11.10;;;;;;;;;;5042998;28;20044;-61
2023/04/21 09:06:57;;;;;;;16.35;10.40;;;13.00;99.90;;;;;;5045835;28;20055;-62
2023/04/21 09:09:23;;;;;;;23.08;11.40;;;13.30;99.90;;;;;;5039148;28;20066;-61
2023/04/21 09:11:57;;;;;;;16.13;10.02;;;13.40;99.90;;;;;;5036878;28;20183;-61
2023/04/21 09:14:31;;;;;;;14.13;9.63;;;13.50;99.90;;;;;;5045476;28;20495;-62
2023/04/21 09:17:03;;;;;;;12.68;9.23;;;13.50;99.90;;;;;;5028529;28;20495;-61
2023/04/21 09:19:33;;;;;;;15.32;11.15;;;13.60;99.90;;;;;;5046359;28;20124;-59
2023/04/21 09:22:02;;;;;;;15.02;9.60;;;13.70;99.90;;;;;;5015708;28;20250;-59
2023/04/21 09:24:28;;;;;;;16.30;10.23;;;;;;;;;;5043397;28;20454;-60
2023/04/21 09:26:54;;;;;;;16.75;10.50;;;;;;;;;;5045250;28;20038;-59
2023/04/21 09:29:24;;;;;;;16.27;10.98;;;;;;;;;;5012002;28;20296;-60
2023/04/21 09:31:51;;;;;;;12.68;11.02;;;;;;;;;;5045690;28;20037;-60
2023/04/21 09:34:18;;;;;;;15.43;10.48;;;;;;;;;;5026610;28;20128;-60
2023/04/21 09:36:46;;;;;;;16.20;9.90;;;;;;;;;;5042610;28;20219;-60
2023/04/21 09:39:12;;;;;;;13.95;10.73;;;;;;;;;;5044226;28;20086;-60
2023/04/21 09:41:38;;;;;;;18.92;10.93;;;;;;;;;;5046129;28;20664;-60
2023/04/21 09:44:04;;;;;;;15.93;10.52;;;;;;;;;;5046559;28;20628;-60
2023/04/21 09:46:33;;;;;;;17.13;10.90;;;;;;;;;;5045705;28;20202;-60
2023/04/21 09:49:02;;;;;;;16.52;10.13;;;;;;;;;;5045869;28;20044;-60
2023/04/21 09:51:30;;;;;;;15.70;10.77;;;;;;;;;;5030447;28;20033;-60
2023/04/21 09:53:59;;;;;;;19.55;10.13;;;;;;;;;;5048518;28;20033;-61
2023/04/21 09:56:25;;;;;;;16.42;9.93;;;;;;;;;;5048590;28;20045;-61
2023/04/21 09:58:57;;;;;;;14.35;9.65;;;;;;;;;;5049662;28;20081;-60
2023/04/21 10:01:25;;;;;;;14.63;9.93;;;;;;;;;;5047551;28;20064;-61
2023/04/21 10:03:52;;;;;;;15.82;9.27;;;;;;;;;;5048189;28;20048;-61
2023/04/21 10:06:18;;;;;;;18.27;10.63;;;;;;;;;;5048048;28;20400;-61
2023/04/21 10:08:45;;;;;;;15.23;9.77;;;;;;;;;;5045025;28;20044;-60
2023/04/21 10:11:12;;;;;;;14.25;9.73;;;;;;;;;;5050013;28;20043;-60
2023/04/21 10:13:39;;;;;;;16.92;10.95;;;;;;;;;;5048820;28;20055;-60
2023/04/21 10:16:09;;;;;;;21.05;10.73;;;;;;;;;;5049179;28;20056;-60
2023/04/21 10:18:41;;;;;;;16.23;10.02;;;;;;;;;;5027624;28;20063;-61
2023/04/21 10:21:08;;;;;;;;;;;;;;;;;;5051182;28;20049;-61
2023/04/21 10:23:47;;;;;;;14.82;9.82;;;;;;;;;;5044223;28;19978;-61
2023/04/21 10:26:24;;;;;;;16.35;10.40;;;;;;;;;;5014211;28;20128;-61
2023/04/21 10:28:58;;;;;;;14.50;10.38;;;;;;;;;;5048798;28;20029;-61
2023/04/21 10:31:37;;;;;;;16.35;10.52;;;;;;;;;;5049467;28;20094;-61
2023/04/21 10:34:12;;;;;;;16.73;9.65;;;13.80;99.90;;;;;;5045351;28;20127;-62
2023/04/21 10:36:56;;;;;;;15.15;10.10;;;;;;;;;;5038255;28;20045;-61
2023/04/21 10:39:27;;;;;;;13.40;9.32;;;15.30;99.90;;;;;;5045394;28;20132;-61
2023/04/21 10:42:19;;;;;;;13.15;9.80;;;;;;;;;;5046156;28;20121;-61
2023/04/21 10:44:58;;;;;;;21.67;9.88;;;;;;;;;;5048139;28;20051;-61
2023/04/21 10:47:28;;;;;;;19.85;10.45;;;;;;;;;;5045775;28;20132;-60
2023/04/21 10:49:59;;;;;;;12.57;8.85;;;;;;;;;;5047624;28;20115;-61
2023/04/21 10:52:35;;;;;;;13.98;9.90;;;;;;;;;;5048718;28;20033;-61
2023/04/21 10:55:01;;;;;;;10.80;9.35;;;15.50;99.90;;;;;;5046904;28;20064;-61
2023/04/21 10:57:30;;;;;;;19.40;10.40;;;;;;;;;;5042240;28;20076;-61
2023/04/21 10:59:57;;;;;;;14.32;9.60;;;;;;;;;;5044400;28;20455;-61
2023/04/21 11:02:23;;;;;;;14.32;10.20;;;;;;;;;;5017559;28;20053;-61
2023/04/21 11:04:53;;;;;;;17.42;10.32;;;;;;;;;;5046494;28;20447;-61
2023/04/21 11:07:23;;;;;;;16.48;9.68;;;;;;;;;;5043140;28;20509;-61
2023/04/21 11:09:56;;;;;;;13.65;9.30;;;;;;;;;;5036830;28;20041;-61
2023/04/21 11:12:22;;;;;;;15.52;10.13;;;;;;;;;;5037989;28;20439;-61
2023/04/21 11:14:48;;;;;;;15.48;9.70;;;;;;;;;;5044234;28;20033;-61
2023/04/21 11:17:18;;;;;;;16.75;9.93;;;;;;;;;;5044996;28;20041;-61
2023/04/21 11:19:48;;;;;;;12.95;9.50;;;;;;;;;;5020474;28;20044;-61
2023/04/21 11:22:16;;;;;;;11.82;9.43;;;;;;;;;;5045721;28;20064;-61
2023/04/21 11:24:47;;;;;;;21.10;10.95;;;15.80;99.90;;;;;;5041066;28;20522;-61
2023/04/21 11:27:16;;;;;;;15.30;9.32;;;16.50;99.90;;;;;;5042735;28;20047;-61
2023/04/21 11:29:46;;;;;;;15.63;9.82;;;16.50;99.90;;;;;;5034327;28;20034;-61
2023/04/21 11:32:12;;;;;;;21.10;10.25;;;16.50;99.90;;;;;;4965620;28;20033;-61
2023/04/21 11:34:39;;;;;;;13.30;9.32;;;16.60;99.90;;;;;;5027392;28;20033;-61
2023/04/21 11:37:16;;;;;;;12.48;9.57;;;16.60;99.90;;;;;;5045876;28;20032;-61
2023/04/21 11:39:43;;;;;;;11.88;8.95;;;16.70;99.90;;;;;;5036583;28;20045;-61
2023/04/21 11:42:10;;;;;;;12.75;9.63;;;16.70;99.90;;;;;;5041715;28;20032;-60
2023/04/21 11:44:40;;;;;;;15.93;10.23;;;16.80;99.90;;;;;;5023980;28;20072;-61
2023/04/21 11:47:20;;;;;;;13.68;8.98;;;16.80;99.90;;;;;;5047835;28;20073;-61
2023/04/21 11:49:56;;;;;;;12.75;7.50;;;16.90;99.90;;;;;;5044385;28;20463;-61
2023/04/21 11:52:22;;;;;;;14.50;8.95;;;16.80;99.90;;;;;;5041683;28;20078;-61
2023/04/21 11:54:55;;;;;;;10.77;8.35;;;16.80;99.90;;;;;;5046655;28;20040;-62
2023/04/21 11:57:23;;;;;;;13.82;8.45;;;16.80;99.90;;;;;;5032352;28;20038;-61
2023/04/21 11:59:48;;;;;;;9.23;7.57;;;16.90;99.90;;;;;;5046246;28;20065;-61
2023/04/21 12:02:23;;;;;;;12.57;7.93;;;16.90;99.90;;;;;;5041850;28;20478;-61
2023/04/21 12:05:06;;;;;;;17.20;8.75;;;17.00;99.90;;;;;;5037797;28;20045;-61
2023/04/21 12:07:34;;;;;;;15.07;8.27;;;17.00;99.90;;;;;;5044734;28;20454;-61
2023/04/21 12:10:01;;;;;;;12.73;7.80;;;17.00;99.90;;;;;;5040171;28;20391;-61
2023/04/21 12:12:28;;;;;;;13.13;8.65;;;17.00;99.90;;;;;;5022343;28;20120;-62
2023/04/21 12:14:54;;;;;;;13.77;9.38;;;17.00;99.90;;;;;;5041091;28;20155;-61
2023/04/21 12:17:20;;;;;;;13.05;8.63;;;17.00;99.90;;;;;;5042283;28;20087;-61
2023/04/21 12:19:46;;;;;;;16.75;8.68;;;17.00;99.90;;;;;;5026698;28;20136;-61
2023/04/21 12:22:14;;;;;;;15.07;7.10;;;17.00;99.90;;;;;;5040088;28;20490;-61
2023/04/21 12:24:42;;;;;;;14.05;7.53;;;17.00;99.90;;;;;;5035168;28;20086;-61
2023/04/21 12:27:09;;;;;;;12.90;8.35;;;17.10;99.90;;;;;;5039643;28;20068;-61
2023/04/21 12:29:36;;;;;;;13.77;8.00;;;17.10;99.90;;;;;;5026536;28;20445;-61
2023/04/21 12:32:03;;;;;;;14.23;7.38;;;17.10;99.90;;;;;;5044938;28;20120;-61
2023/04/21 12:34:29;;;;;;;16.25;7.78;;;17.10;99.90;;;;;;5027717;28;20045;-61
2023/04/21 12:36:55;;;;;;;14.60;8.10;;;17.10;99.90;;;;;;5018702;28;20060;-61
2023/04/21 12:39:21;;;;;;;14.63;7.35;;;17.10;99.90;;;;;;5003966;28;20415;-61
2023/04/21 12:41:47;;;;;;;12.40;6.60;;;17.10;99.90;;;;;;5039743;28;20079;-61
2023/04/21 12:44:13;;;;;;;17.85;6.97;;;17.10;99.90;;;;;;5003590;28;20041;-61
2023/04/21 12:46:40;;;;;;;11.07;7.03;;;17.10;99.90;;;;;;5033423;28;20083;-61
2023/04/21 12:49:07;;;;;;;9.15;6.32;;;17.10;99.90;;;;;;5040400;28;20036;-61
2023/04/21 12:51:33;;;;;;;9.48;5.72;;;17.10;99.90;;;;;;4987430;28;20076;-60
2023/04/21 12:53:59;;;;;;;13.10;5.60;;;17.10;99.90;;;;;;5024688;28;20119;-61
2023/04/21 12:56:25;;;;;;;9.82;5.93;;;17.10;99.90;;;;;;5038018;28;20033;-61
2023/04/21 12:58:52;;;;;;;10.35;4.55;;;17.10;99.90;;;;;;5026069;28;20989;-61
2023/04/21 13:01:19;;;;;;;7.07;3.92;;;17.10;99.90;;;;;;5024980;28;20511;-61
2023/04/21 13:03:45;;;;;;;7.80;4.75;;;17.10;99.90;;;;;;5026857;28;20103;-61
2023/04/21 13:06:11;;;;;;;10.80;4.82;;;17.20;99.80;;;;;;5041518;28;20132;-62
2023/04/21 13:08:37;;;;;;;7.05;3.97;;;17.30;99.40;;;;;;5014205;28;20133;-61
2023/04/21 13:11:03;;;;;;;11.75;5.13;;;17.30;99.00;;;;;;5042514;28;20436;-61
2023/04/21 13:13:29;;;;;;;7.57;4.70;;;17.40;99.00;;;;;;5044030;28;20035;-61
2023/04/21 13:15:55;;;;;;;7.68;4.65;;;17.30;98.90;;;;;;5044894;28;20044;-61
2023/04/21 13:18:21;;;;;;;11.65;4.60;;;17.30;98.40;;;;;;5043123;28;20036;-61
2023/04/21 13:20:48;;;;;;;12.45;5.45;;;17.30;98.50;;;;;;5041929;28;20554;-61
2023/04/21 13:23:14;;;;;;;8.98;4.65;;;17.20;98.40;;;;;;5032012;28;20502;-61
2023/04/21 13:25:40;;;;;;;10.75;5.15;;;17.20;98.30;;;;;;5037296;28;20044;-61
2023/04/21 13:28:07;;;;;;;12.02;4.88;;;17.30;98.40;;;;;;5041041;28;20056;-61
2023/04/21 13:30:35;;;;;;;8.93;5.05;;;17.40;98.00;;;;;;5038637;28;20040;-61
2023/04/21 13:33:00;;;;;;;9.10;5.00;;;17.50;97.40;;;;;;5028930;28;20087;-61
2023/04/21 13:35:26;;;;;;;10.65;5.05;;;17.40;97.20;;;;;;5040591;28;20108;-61
2023/04/21 13:37:53;;;;;;;13.05;4.43;;;17.40;97.30;;;;;;5011450;28;20147;-61
2023/04/21 13:40:19;;;;;;;8.35;5.10;;;17.40;97.20;;;;;;5041323;28;20045;-61
2023/04/21 13:42:45;;;;;;;8.60;4.38;;;17.40;96.90;;;;;;5041073;28;20147;-62